sensor_id;sensor_type;location;lat;lon;timestamp;P1;durP1;ratioP1;P2;durP2;ratioP2
23567;SDS011;11962;50.838;4.430;2023-07-31T00:01:57;15.10;;;5.07;;
23567;SDS011;11962;50.838;4.430;2023-07-31T00:04:23;13.15;;;4.57;;
23567;SDS011;11962;50.838;4.430;2023-07-31T00:06:48;14.73;;;4.47;;
23567;SDS011;11962;50.838;4.430;2023-07-31T00:09:14;15.15;;;4.97;;
23567;SDS011;11962;50.838;4.430;2023-07-31T00:11:40;19.10;;;4.88;;
23567;SDS011;11962;50.838;4.430;2023-07-31T00:14:05;15.77;;;5.05;;
23567;SDS011;11962;50.838;4.430;2023-07-31T00:16:31;14.52;;;4.85;;
23567;SDS011;11962;50.838;4.430;2023-07-31T00:18:57;14.85;;;5.00;;
23567;SDS011;11962;50.838;4.430;2023-07-31T00:21:23;16.67;;;5.10;;
23567;SDS011;11962;50.838;4.430;2023-07-31T00:23:48;13.85;;;4.82;;
23567;SDS011;11962;50.838;4.430;2023-07-31T00:26:14;15.20;;;4.90;;
23567;SDS011;11962;50.838;4.430;2023-07-31T00:28:40;18.27;;;4.97;;
23567;SDS011;11962;50.838;4.430;2023-07-31T00:31:06;14.00;;;4.72;;
23567;SDS011;11962;50.838;4.430;2023-07-31T00:33:31;14.18;;;5.20;;
23567;SDS011;11962;50.838;4.430;2023-07-31T00:35:59;17.27;;;4.90;;
23567;SDS011;11962;50.838;4.430;2023-07-31T00:38:25;16.15;;;5.63;;
23567;SDS011;11962;50.838;4.430;2023-07-31T00:40:51;15.10;;;4.88;;
23567;SDS011;11962;50.838;4.430;2023-07-31T00:43:17;12.95;;;4.38;;
23567;SDS011;11962;50.838;4.430;2023-07-31T00:45:43;13.52;;;4.75;;
23567;SDS011;11962;50.838;4.430;2023-07-31T00:48:09;14.55;;;4.38;;
23567;SDS011;11962;50.838;4.430;2023-07-31T00:50:36;12.75;;;4.55;;
23567;SDS011;11962;50.838;4.430;2023-07-31T00:53:02;11.00;;;5.32;;
23567;SDS011;11962;50.838;4.430;2023-07-31T00:55:29;10.98;;;4.78;;
23567;SDS011;11962;50.838;4.430;2023-07-31T00:57:55;13.60;;;4.35;;
23567;SDS011;11962;50.838;4.430;2023-07-31T01:00:21;12.45;;;4.45;;
23567;SDS011;11962;50.838;4.430;2023-07-31T01:02:48;14.60;;;4.60;;
23567;SDS011;11962;50.838;4.430;2023-07-31T01:05:15;13.63;;;4.53;;
23567;SDS011;11962;50.838;4.430;2023-07-31T01:07:51;11.65;;;4.13;;
23567;SDS011;11962;50.838;4.430;2023-07-31T01:10:33;10.80;;;4.47;;
23567;SDS011;11962;50.838;4.430;2023-07-31T01:13:02;10.52;;;4.40;;
23567;SDS011;11962;50.838;4.430;2023-07-31T01:15:28;15.75;;;4.78;;
23567;SDS011;11962;50.838;4.430;2023-07-31T01:17:54;11.98;;;4.45;;
23567;SDS011;11962;50.838;4.430;2023-07-31T01:20:23;16.45;;;5.03;;
23567;SDS011;11962;50.838;4.430;2023-07-31T01:22:59;15.02;;;5.07;;
23567;SDS011;11962;50.838;4.430;2023-07-31T01:26:33;12.35;;;4.75;;
23567;SDS011;11962;50.838;4.430;2023-07-31T01:29:41;12.35;;;4.63;;
23567;SDS011;11962;50.838;4.430;2023-07-31T01:31:33;12.13;;;4.97;;
23567;SDS011;11962;50.838;4.430;2023-07-31T01:34:00;10.60;;;4.63;;
23567;SDS011;11962;50.838;4.430;2023-07-31T01:36:27;14.10;;;4.97;;
23567;SDS011;11962;50.838;4.430;2023-07-31T01:41:25;14.70;;;4.60;;
23567;SDS011;11962;50.838;4.430;2023-07-31T01:43:51;12.15;;;4.97;;
23567;SDS011;11962;50.838;4.430;2023-07-31T01:46:17;17.63;;;5.65;;
23567;SDS011;11962;50.838;4.430;2023-07-31T01:48:42;9.60;;;4.80;;
23567;SDS011;11962;50.838;4.430;2023-07-31T01:51:08;11.07;;;4.88;;
23567;SDS011;11962;50.838;4.430;2023-07-31T01:53:34;12.30;;;5.25;;
23567;SDS011;11962;50.838;4.430;2023-07-31T01:55:59;16.98;;;5.38;;
23567;SDS011;11962;50.838;4.430;2023-07-31T01:58:25;11.60;;;4.95;;
23567;SDS011;11962;50.838;4.430;2023-07-31T02:00:51;10.63;;;5.13;;
23567;SDS011;11962;50.838;4.430;2023-07-31T02:03:17;14.23;;;5.10;;
23567;SDS011;11962;50.838;4.430;2023-07-31T02:05:46;11.65;;;5.63;;
23567;SDS011;11962;50.838;4.430;2023-07-31T02:08:13;14.68;;;5.43;;
23567;SDS011;11962;50.838;4.430;2023-07-31T02:10:40;15.82;;;4.97;;
23567;SDS011;11962;50.838;4.430;2023-07-31T02:13:06;11.43;;;4.85;;
23567;SDS011;11962;50.838;4.430;2023-07-31T02:15:32;13.73;;;5.40;;
23567;SDS011;11962;50.838;4.430;2023-07-31T02:17:58;11.30;;;4.90;;
23567;SDS011;11962;50.838;4.430;2023-07-31T02:20:23;13.02;;;4.57;;
23567;SDS011;11962;50.838;4.430;2023-07-31T02:22:49;13.10;;;5.28;;
23567;SDS011;11962;50.838;4.430;2023-07-31T02:25:15;14.02;;;5.22;;
23567;SDS011;11962;50.838;4.430;2023-07-31T02:27:41;13.20;;;5.40;;
23567;SDS011;11962;50.838;4.430;2023-07-31T02:30:07;9.80;;;5.32;;
23567;SDS011;11962;50.838;4.430;2023-07-31T02:32:33;10.65;;;5.10;;
23567;SDS011;11962;50.838;4.430;2023-07-31T02:34:58;10.82;;;4.78;;
23567;SDS011;11962;50.838;4.430;2023-07-31T02:37:24;10.30;;;4.80;;
23567;SDS011;11962;50.838;4.430;2023-07-31T02:39:50;11.43;;;4.85;;
23567;SDS011;11962;50.838;4.430;2023-07-31T02:42:16;10.82;;;4.40;;
23567;SDS011;11962;50.838;4.430;2023-07-31T02:44:42;6.30;;;4.03;;
23567;SDS011;11962;50.838;4.430;2023-07-31T02:47:08;11.50;;;4.47;;
23567;SDS011;11962;50.838;4.430;2023-07-31T02:49:33;8.90;;;4.03;;
23567;SDS011;11962;50.838;4.430;2023-07-31T02:51:59;8.73;;;4.43;;
23567;SDS011;11962;50.838;4.430;2023-07-31T02:54:25;11.02;;;4.40;;
23567;SDS011;11962;50.838;4.430;2023-07-31T02:56:50;9.80;;;4.30;;
23567;SDS011;11962;50.838;4.430;2023-07-31T02:59:17;7.40;;;4.35;;
23567;SDS011;11962;50.838;4.430;2023-07-31T03:01:43;8.38;;;4.40;;
23567;SDS011;11962;50.838;4.430;2023-07-31T03:04:09;8.35;;;4.20;;
23567;SDS011;11962;50.838;4.430;2023-07-31T03:06:35;10.45;;;3.78;;
23567;SDS011;11962;50.838;4.430;2023-07-31T03:09:00;7.63;;;4.15;;
23567;SDS011;11962;50.838;4.430;2023-07-31T03:11:26;10.07;;;4.18;;
23567;SDS011;11962;50.838;4.430;2023-07-31T03:13:52;8.20;;;3.88;;
23567;SDS011;11962;50.838;4.430;2023-07-31T03:16:17;10.63;;;4.13;;
23567;SDS011;11962;50.838;4.430;2023-07-31T03:18:43;9.70;;;3.78;;
23567;SDS011;11962;50.838;4.430;2023-07-31T03:21:09;7.05;;;4.20;;
23567;SDS011;11962;50.838;4.430;2023-07-31T03:23:34;9.82;;;4.13;;
23567;SDS011;11962;50.838;4.430;2023-07-31T03:26:01;9.02;;;4.20;;
23567;SDS011;11962;50.838;4.430;2023-07-31T03:28:28;9.15;;;4.45;;
23567;SDS011;11962;50.838;4.430;2023-07-31T03:30:54;7.82;;;4.10;;
23567;SDS011;11962;50.838;4.430;2023-07-31T03:33:20;9.20;;;4.50;;
23567;SDS011;11962;50.838;4.430;2023-07-31T03:35:46;8.38;;;4.25;;
23567;SDS011;11962;50.838;4.430;2023-07-31T03:38:12;8.70;;;4.65;;
23567;SDS011;11962;50.838;4.430;2023-07-31T03:40:38;9.50;;;3.90;;
23567;SDS011;11962;50.838;4.430;2023-07-31T03:43:04;10.52;;;4.47;;
23567;SDS011;11962;50.838;4.430;2023-07-31T03:45:30;8.00;;;4.32;;
23567;SDS011;11962;50.838;4.430;2023-07-31T03:47:56;14.52;;;4.10;;
23567;SDS011;11962;50.838;4.430;2023-07-31T03:50:22;11.70;;;4.88;;
23567;SDS011;11962;50.838;4.430;2023-07-31T03:52:48;10.45;;;4.38;;
23567;SDS011;11962;50.838;4.430;2023-07-31T03:55:13;6.82;;;4.13;;
23567;SDS011;11962;50.838;4.430;2023-07-31T03:57:39;9.50;;;4.40;;
23567;SDS011;11962;50.838;4.430;2023-07-31T04:00:05;10.52;;;4.50;;
23567;SDS011;11962;50.838;4.430;2023-07-31T04:02:31;9.27;;;4.32;;
23567;SDS011;11962;50.838;4.430;2023-07-31T04:04:57;11.75;;;4.00;;
23567;SDS011;11962;50.838;4.430;2023-07-31T04:07:23;9.60;;;4.28;;
23567;SDS011;11962;50.838;4.430;2023-07-31T04:09:48;10.30;;;4.70;;
23567;SDS011;11962;50.838;4.430;2023-07-31T04:12:14;7.78;;;3.88;;
23567;SDS011;11962;50.838;4.430;2023-07-31T04:14:40;7.25;;;4.07;;
23567;SDS011;11962;50.838;4.430;2023-07-31T04:17:05;9.68;;;4.15;;
23567;SDS011;11962;50.838;4.430;2023-07-31T04:19:31;7.22;;;3.70;;
23567;SDS011;11962;50.838;4.430;2023-07-31T04:21:57;7.30;;;4.32;;
23567;SDS011;11962;50.838;4.430;2023-07-31T04:24:23;12.35;;;4.72;;
23567;SDS011;11962;50.838;4.430;2023-07-31T04:26:52;10.88;;;4.28;;
23567;SDS011;11962;50.838;4.430;2023-07-31T04:29:18;9.52;;;3.95;;
23567;SDS011;11962;50.838;4.430;2023-07-31T04:31:44;7.30;;;3.85;;
23567;SDS011;11962;50.838;4.430;2023-07-31T04:34:10;10.15;;;3.83;;
23567;SDS011;11962;50.838;4.430;2023-07-31T04:36:36;8.52;;;4.32;;
23567;SDS011;11962;50.838;4.430;2023-07-31T04:39:02;12.50;;;4.28;;
23567;SDS011;11962;50.838;4.430;2023-07-31T04:41:28;9.60;;;4.13;;
23567;SDS011;11962;50.838;4.430;2023-07-31T04:43:54;8.98;;;4.00;;
23567;SDS011;11962;50.838;4.430;2023-07-31T04:46:19;9.30;;;4.10;;
23567;SDS011;11962;50.838;4.430;2023-07-31T04:48:45;7.57;;;3.70;;
23567;SDS011;11962;50.838;4.430;2023-07-31T04:51:11;10.20;;;4.18;;
23567;SDS011;11962;50.838;4.430;2023-07-31T04:53:37;10.23;;;3.97;;
23567;SDS011;11962;50.838;4.430;2023-07-31T04:56:02;7.80;;;4.32;;
23567;SDS011;11962;50.838;4.430;2023-07-31T04:58:28;6.15;;;3.75;;
23567;SDS011;11962;50.838;4.430;2023-07-31T05:00:54;7.30;;;3.60;;
23567;SDS011;11962;50.838;4.430;2023-07-31T05:03:20;9.35;;;3.85;;
23567;SDS011;11962;50.838;4.430;2023-07-31T05:05:45;7.18;;;3.75;;
23567;SDS011;11962;50.838;4.430;2023-07-31T05:08:11;7.10;;;3.47;;
23567;SDS011;11962;50.838;4.430;2023-07-31T05:10:37;7.78;;;4.00;;
23567;SDS011;11962;50.838;4.430;2023-07-31T05:13:03;9.32;;;4.05;;
23567;SDS011;11962;50.838;4.430;2023-07-31T05:15:29;6.65;;;4.03;;
23567;SDS011;11962;50.838;4.430;2023-07-31T05:17:55;7.97;;;4.05;;
23567;SDS011;11962;50.838;4.430;2023-07-31T05:20:20;11.25;;;4.15;;
23567;SDS011;11962;50.838;4.430;2023-07-31T05:22:46;10.48;;;4.20;;
23567;SDS011;11962;50.838;4.430;2023-07-31T05:25:12;9.63;;;3.97;;
23567;SDS011;11962;50.838;4.430;2023-07-31T05:27:38;7.85;;;3.80;;
23567;SDS011;11962;50.838;4.430;2023-07-31T05:30:04;9.90;;;4.00;;
23567;SDS011;11962;50.838;4.430;2023-07-31T05:32:32;7.00;;;4.05;;
23567;SDS011;11962;50.838;4.430;2023-07-31T05:34:58;8.65;;;4.20;;
23567;SDS011;11962;50.838;4.430;2023-07-31T05:37:23;11.70;;;4.20;;
23567;SDS011;11962;50.838;4.430;2023-07-31T05:39:49;11.88;;;4.43;;
23567;SDS011;11962;50.838;4.430;2023-07-31T05:42:16;8.02;;;4.15;;
23567;SDS011;11962;50.838;4.430;2023-07-31T05:44:42;11.27;;;4.32;;
23567;SDS011;11962;50.838;4.430;2023-07-31T05:47:08;6.50;;;3.72;;
23567;SDS011;11962;50.838;4.430;2023-07-31T05:49:34;6.43;;;3.47;;
23567;SDS011;11962;50.838;4.430;2023-07-31T05:52:00;6.47;;;3.53;;
23567;SDS011;11962;50.838;4.430;2023-07-31T05:54:25;11.23;;;3.83;;
23567;SDS011;11962;50.838;4.430;2023-07-31T05:56:51;7.93;;;3.72;;
23567;SDS011;11962;50.838;4.430;2023-07-31T05:59:17;9.52;;;3.50;;
23567;SDS011;11962;50.838;4.430;2023-07-31T06:01:43;8.07;;;4.00;;
23567;SDS011;11962;50.838;4.430;2023-07-31T06:04:09;13.57;;;4.20;;
23567;SDS011;11962;50.838;4.430;2023-07-31T06:06:34;9.25;;;4.32;;
23567;SDS011;11962;50.838;4.430;2023-07-31T06:09:00;10.52;;;3.92;;
23567;SDS011;11962;50.838;4.430;2023-07-31T06:11:26;10.43;;;4.47;;
23567;SDS011;11962;50.838;4.430;2023-07-31T06:13:52;8.40;;;3.75;;
23567;SDS011;11962;50.838;4.430;2023-07-31T06:16:17;9.25;;;3.80;;
23567;SDS011;11962;50.838;4.430;2023-07-31T06:18:43;7.40;;;4.03;;
23567;SDS011;11962;50.838;4.430;2023-07-31T06:21:09;6.18;;;3.35;;
23567;SDS011;11962;50.838;4.430;2023-07-31T06:23:35;7.90;;;3.50;;
23567;SDS011;11962;50.838;4.430;2023-07-31T06:26:01;10.98;;;3.92;;
23567;SDS011;11962;50.838;4.430;2023-07-31T06:28:27;10.32;;;3.97;;
23567;SDS011;11962;50.838;4.430;2023-07-31T06:30:59;5.90;;;3.50;;
23567;SDS011;11962;50.838;4.430;2023-07-31T06:33:26;8.52;;;3.50;;
23567;SDS011;11962;50.838;4.430;2023-07-31T06:35:52;13.63;;;3.42;;
23567;SDS011;11962;50.838;4.430;2023-07-31T06:38:21;10.18;;;4.10;;
23567;SDS011;11962;50.838;4.430;2023-07-31T06:40:49;6.88;;;3.53;;
23567;SDS011;11962;50.838;4.430;2023-07-31T06:43:15;9.65;;;3.35;;
23567;SDS011;11962;50.838;4.430;2023-07-31T06:45:41;10.70;;;3.30;;
23567;SDS011;11962;50.838;4.430;2023-07-31T06:48:07;10.13;;;3.78;;
23567;SDS011;11962;50.838;4.430;2023-07-31T06:50:32;7.07;;;3.60;;
23567;SDS011;11962;50.838;4.430;2023-07-31T06:52:58;6.90;;;3.65;;
23567;SDS011;11962;50.838;4.430;2023-07-31T06:55:25;8.18;;;3.20;;
23567;SDS011;11962;50.838;4.430;2023-07-31T06:57:52;6.45;;;3.50;;
23567;SDS011;11962;50.838;4.430;2023-07-31T07:00:19;8.07;;;3.60;;
23567;SDS011;11962;50.838;4.430;2023-07-31T07:02:46;8.05;;;3.58;;
23567;SDS011;11962;50.838;4.430;2023-07-31T07:05:13;8.30;;;3.80;;
23567;SDS011;11962;50.838;4.430;2023-07-31T07:07:40;6.78;;;3.15;;
23567;SDS011;11962;50.838;4.430;2023-07-31T07:10:06;8.60;;;3.55;;
23567;SDS011;11962;50.838;4.430;2023-07-31T07:12:32;7.47;;;3.45;;
23567;SDS011;11962;50.838;4.430;2023-07-31T07:14:59;7.05;;;3.45;;
23567;SDS011;11962;50.838;4.430;2023-07-31T07:17:28;7.13;;;3.60;;
23567;SDS011;11962;50.838;4.430;2023-07-31T07:19:58;5.25;;;2.97;;
23567;SDS011;11962;50.838;4.430;2023-07-31T07:22:25;8.25;;;3.05;;
23567;SDS011;11962;50.838;4.430;2023-07-31T07:24:52;7.80;;;3.20;;
23567;SDS011;11962;50.838;4.430;2023-07-31T07:27:18;8.60;;;3.08;;
23567;SDS011;11962;50.838;4.430;2023-07-31T07:29:45;8.45;;;3.05;;
23567;SDS011;11962;50.838;4.430;2023-07-31T07:32:11;8.52;;;3.38;;
23567;SDS011;11962;50.838;4.430;2023-07-31T07:34:37;5.57;;;3.00;;
23567;SDS011;11962;50.838;4.430;2023-07-31T07:37:03;6.38;;;2.80;;
23567;SDS011;11962;50.838;4.430;2023-07-31T07:39:28;7.97;;;3.20;;
23567;SDS011;11962;50.838;4.430;2023-07-31T07:41:55;7.65;;;3.20;;
23567;SDS011;11962;50.838;4.430;2023-07-31T07:44:20;6.15;;;2.90;;
23567;SDS011;11962;50.838;4.430;2023-07-31T07:46:46;5.72;;;2.90;;
23567;SDS011;11962;50.838;4.430;2023-07-31T07:49:12;5.90;;;3.00;;
23567;SDS011;11962;50.838;4.430;2023-07-31T07:51:38;6.35;;;3.30;;
23567;SDS011;11962;50.838;4.430;2023-07-31T07:54:04;9.35;;;3.05;;
23567;SDS011;11962;50.838;4.430;2023-07-31T07:56:29;8.27;;;3.28;;
23567;SDS011;11962;50.838;4.430;2023-07-31T07:58:55;7.45;;;3.33;;
23567;SDS011;11962;50.838;4.430;2023-07-31T08:01:21;5.13;;;2.95;;
23567;SDS011;11962;50.838;4.430;2023-07-31T08:03:47;7.22;;;3.30;;
23567;SDS011;11962;50.838;4.430;2023-07-31T08:06:13;4.97;;;2.50;;
23567;SDS011;11962;50.838;4.430;2023-07-31T08:08:39;7.85;;;2.47;;
23567;SDS011;11962;50.838;4.430;2023-07-31T08:11:05;8.15;;;2.80;;
23567;SDS011;11962;50.838;4.430;2023-07-31T08:13:31;5.45;;;2.88;;
23567;SDS011;11962;50.838;4.430;2023-07-31T08:15:57;6.80;;;2.80;;
23567;SDS011;11962;50.838;4.430;2023-07-31T08:18:22;5.53;;;2.95;;
23567;SDS011;11962;50.838;4.430;2023-07-31T08:20:48;8.07;;;2.67;;
23567;SDS011;11962;50.838;4.430;2023-07-31T08:23:14;8.95;;;2.83;;
23567;SDS011;11962;50.838;4.430;2023-07-31T08:25:40;8.77;;;2.92;;
23567;SDS011;11962;50.838;4.430;2023-07-31T08:28:06;5.82;;;2.90;;
23567;SDS011;11962;50.838;4.430;2023-07-31T08:30:32;5.45;;;2.55;;
23567;SDS011;11962;50.838;4.430;2023-07-31T08:33:01;8.05;;;3.10;;
23567;SDS011;11962;50.838;4.430;2023-07-31T08:35:27;6.20;;;2.97;;
23567;SDS011;11962;50.838;4.430;2023-07-31T08:37:54;6.30;;;2.78;;
23567;SDS011;11962;50.838;4.430;2023-07-31T08:40:20;4.57;;;2.60;;
23567;SDS011;11962;50.838;4.430;2023-07-31T08:42:49;7.32;;;2.78;;
23567;SDS011;11962;50.838;4.430;2023-07-31T08:47:46;3.83;;;2.28;;
23567;SDS011;11962;50.838;4.430;2023-07-31T08:50:17;4.45;;;2.50;;
23567;SDS011;11962;50.838;4.430;2023-07-31T08:52:45;4.22;;;2.47;;
23567;SDS011;11962;50.838;4.430;2023-07-31T08:55:12;6.53;;;2.92;;
23567;SDS011;11962;50.838;4.430;2023-07-31T08:57:38;7.47;;;3.03;;
23567;SDS011;11962;50.838;4.430;2023-07-31T09:00:05;7.68;;;2.72;;
23567;SDS011;11962;50.838;4.430;2023-07-31T09:02:44;5.55;;;2.80;;
23567;SDS011;11962;50.838;4.430;2023-07-31T09:05:17;5.68;;;2.70;;
23567;SDS011;11962;50.838;4.430;2023-07-31T09:07:45;5.28;;;3.20;;
23567;SDS011;11962;50.838;4.430;2023-07-31T09:10:13;6.88;;;2.70;;
23567;SDS011;11962;50.838;4.430;2023-07-31T09:12:39;6.90;;;2.90;;
23567;SDS011;11962;50.838;4.430;2023-07-31T09:15:05;4.50;;;3.17;;
23567;SDS011;11962;50.838;4.430;2023-07-31T09:17:32;7.25;;;2.90;;
23567;SDS011;11962;50.838;4.430;2023-07-31T09:20:17;7.80;;;3.13;;
23567;SDS011;11962;50.838;4.430;2023-07-31T09:22:45;6.47;;;2.78;;
23567;SDS011;11962;50.838;4.430;2023-07-31T09:25:15;6.28;;;3.42;;
23567;SDS011;11962;50.838;4.430;2023-07-31T09:27:46;6.18;;;3.78;;
23567;SDS011;11962;50.838;4.430;2023-07-31T09:30:24;7.75;;;3.45;;
23567;SDS011;11962;50.838;4.430;2023-07-31T09:32:51;6.78;;;3.10;;
23567;SDS011;11962;50.838;4.430;2023-07-31T09:35:28;8.43;;;3.00;;
23567;SDS011;11962;50.838;4.430;2023-07-31T09:38:11;7.30;;;3.25;;
23567;SDS011;11962;50.838;4.430;2023-07-31T09:40:39;7.75;;;3.50;;
23567;SDS011;11962;50.838;4.430;2023-07-31T09:48:23;9.73;;;3.30;;
23567;SDS011;11962;50.838;4.430;2023-07-31T09:50:52;5.47;;;3.20;;
23567;SDS011;11962;50.838;4.430;2023-07-31T09:53:19;7.10;;;3.17;;
23567;SDS011;11962;50.838;4.430;2023-07-31T09:55:44;7.13;;;3.58;;
23567;SDS011;11962;50.838;4.430;2023-07-31T09:58:11;7.25;;;3.20;;
23567;SDS011;11962;50.838;4.430;2023-07-31T10:00:38;10.23;;;4.03;;
23567;SDS011;11962;50.838;4.430;2023-07-31T10:03:05;4.93;;;3.35;;
23567;SDS011;11962;50.838;4.430;2023-07-31T10:08:16;6.32;;;3.63;;
23567;SDS011;11962;50.838;4.430;2023-07-31T10:10:45;6.95;;;3.95;;
23567;SDS011;11962;50.838;4.430;2023-07-31T10:13:11;9.77;;;3.92;;
23567;SDS011;11962;50.838;4.430;2023-07-31T10:15:38;6.68;;;3.58;;
23567;SDS011;11962;50.838;4.430;2023-07-31T10:18:05;10.23;;;3.95;;
23567;SDS011;11962;50.838;4.430;2023-07-31T10:20:32;9.45;;;4.25;;
23567;SDS011;11962;50.838;4.430;2023-07-31T10:22:58;9.55;;;4.22;;
23567;SDS011;11962;50.838;4.430;2023-07-31T10:25:26;7.82;;;3.80;;
23567;SDS011;11962;50.838;4.430;2023-07-31T10:27:52;9.03;;;4.33;;
23567;SDS011;11962;50.838;4.430;2023-07-31T10:30:20;8.48;;;3.95;;
23567;SDS011;11962;50.838;4.430;2023-07-31T10:32:50;8.13;;;4.32;;
23567;SDS011;11962;50.838;4.430;2023-07-31T10:35:18;8.05;;;3.65;;
23567;SDS011;11962;50.838;4.430;2023-07-31T10:37:44;9.65;;;3.88;;
23567;SDS011;11962;50.838;4.430;2023-07-31T10:40:15;8.18;;;3.95;;
23567;SDS011;11962;50.838;4.430;2023-07-31T10:42:54;7.35;;;4.00;;
23567;SDS011;11962;50.838;4.430;2023-07-31T10:45:32;8.60;;;4.25;;
23567;SDS011;11962;50.838;4.430;2023-07-31T10:48:05;9.80;;;4.53;;
23567;SDS011;11962;50.838;4.430;2023-07-31T10:50:37;6.20;;;3.75;;
23567;SDS011;11962;50.838;4.430;2023-07-31T10:53:10;11.75;;;4.57;;
23567;SDS011;11962;50.838;4.430;2023-07-31T10:55:51;7.78;;;4.45;;
23567;SDS011;11962;50.838;4.430;2023-07-31T10:58:18;9.10;;;4.57;;
23567;SDS011;11962;50.838;4.430;2023-07-31T11:00:47;11.18;;;4.80;;
23567;SDS011;11962;50.838;4.430;2023-07-31T11:03:14;9.55;;;4.18;;
23567;SDS011;11962;50.838;4.430;2023-07-31T11:08:23;11.15;;;4.32;;
23567;SDS011;11962;50.838;4.430;2023-07-31T11:10:51;9.57;;;4.22;;
23567;SDS011;11962;50.838;4.430;2023-07-31T11:13:26;10.98;;;4.13;;
23567;SDS011;11962;50.838;4.430;2023-07-31T11:15:52;7.65;;;3.85;;
23567;SDS011;11962;50.838;4.430;2023-07-31T11:18:18;8.57;;;3.80;;
23567;SDS011;11962;50.838;4.430;2023-07-31T11:20:43;6.80;;;3.63;;
23567;SDS011;11962;50.838;4.430;2023-07-31T11:23:09;9.25;;;4.25;;
23567;SDS011;11962;50.838;4.430;2023-07-31T11:25:36;10.30;;;4.38;;
23567;SDS011;11962;50.838;4.430;2023-07-31T11:28:06;8.33;;;3.63;;
23567;SDS011;11962;50.838;4.430;2023-07-31T11:30:33;9.00;;;3.85;;
23567;SDS011;11962;50.838;4.430;2023-07-31T11:33:01;7.47;;;3.70;;
23567;SDS011;11962;50.838;4.430;2023-07-31T11:35:31;7.07;;;3.38;;
23567;SDS011;11962;50.838;4.430;2023-07-31T11:37:58;9.98;;;4.25;;
23567;SDS011;11962;50.838;4.430;2023-07-31T11:40:25;9.88;;;3.95;;
23567;SDS011;11962;50.838;4.430;2023-07-31T11:42:57;6.18;;;3.28;;
23567;SDS011;11962;50.838;4.430;2023-07-31T11:45:28;7.45;;;3.90;;
23567;SDS011;11962;50.838;4.430;2023-07-31T11:47:55;9.27;;;3.67;;
23567;SDS011;11962;50.838;4.430;2023-07-31T11:50:22;9.57;;;4.25;;
23567;SDS011;11962;50.838;4.430;2023-07-31T11:52:51;10.82;;;3.65;;
23567;SDS011;11962;50.838;4.430;2023-07-31T11:55:25;13.25;;;4.13;;
23567;SDS011;11962;50.838;4.430;2023-07-31T11:57:52;7.75;;;3.53;;
23567;SDS011;11962;50.838;4.430;2023-07-31T12:00:20;9.02;;;3.85;;
23567;SDS011;11962;50.838;4.430;2023-07-31T12:02:47;8.20;;;3.78;;
23567;SDS011;11962;50.838;4.430;2023-07-31T12:05:13;10.95;;;3.83;;
23567;SDS011;11962;50.838;4.430;2023-07-31T12:07:45;7.90;;;3.95;;
23567;SDS011;11962;50.838;4.430;2023-07-31T12:10:51;8.30;;;3.75;;
23567;SDS011;11962;50.838;4.430;2023-07-31T12:13:20;8.98;;;3.88;;
23567;SDS011;11962;50.838;4.430;2023-07-31T12:15:47;9.20;;;3.95;;
23567;SDS011;11962;50.838;4.430;2023-07-31T12:18:14;10.68;;;4.45;;
23567;SDS011;11962;50.838;4.430;2023-07-31T12:20:54;7.55;;;3.65;;
23567;SDS011;11962;50.838;4.430;2023-07-31T12:23:27;8.27;;;3.92;;
23567;SDS011;11962;50.838;4.430;2023-07-31T12:26:05;10.48;;;3.78;;
23567;SDS011;11962;50.838;4.430;2023-07-31T12:31:04;9.40;;;4.00;;
23567;SDS011;11962;50.838;4.430;2023-07-31T12:33:31;17.67;;;4.13;;
23567;SDS011;11962;50.838;4.430;2023-07-31T12:36:00;9.25;;;4.25;;
23567;SDS011;11962;50.838;4.430;2023-07-31T12:38:27;8.52;;;4.03;;
23567;SDS011;11962;50.838;4.430;2023-07-31T12:40:52;9.13;;;4.10;;
23567;SDS011;11962;50.838;4.430;2023-07-31T12:43:18;6.60;;;3.35;;
23567;SDS011;11962;50.838;4.430;2023-07-31T12:45:44;8.93;;;4.10;;
23567;SDS011;11962;50.838;4.430;2023-07-31T12:48:10;10.75;;;4.25;;
23567;SDS011;11962;50.838;4.430;2023-07-31T12:50:36;10.82;;;3.80;;
23567;SDS011;11962;50.838;4.430;2023-07-31T12:53:04;9.50;;;4.20;;
23567;SDS011;11962;50.838;4.430;2023-07-31T12:55:30;9.90;;;3.80;;
23567;SDS011;11962;50.838;4.430;2023-07-31T12:57:59;8.68;;;4.00;;
23567;SDS011;11962;50.838;4.430;2023-07-31T13:00:25;9.38;;;4.07;;
23567;SDS011;11962;50.838;4.430;2023-07-31T13:02:51;9.35;;;3.75;;
23567;SDS011;11962;50.838;4.430;2023-07-31T13:05:17;10.38;;;3.67;;
23567;SDS011;11962;50.838;4.430;2023-07-31T13:07:44;7.80;;;3.50;;
23567;SDS011;11962;50.838;4.430;2023-07-31T13:10:10;8.65;;;3.90;;
23567;SDS011;11962;50.838;4.430;2023-07-31T13:12:36;7.05;;;3.58;;
23567;SDS011;11962;50.838;4.430;2023-07-31T13:15:03;7.53;;;3.45;;
23567;SDS011;11962;50.838;4.430;2023-07-31T13:17:32;9.73;;;3.97;;
23567;SDS011;11962;50.838;4.430;2023-07-31T13:19:58;8.48;;;3.90;;
23567;SDS011;11962;50.838;4.430;2023-07-31T13:22:24;8.15;;;3.45;;
23567;SDS011;11962;50.838;4.430;2023-07-31T13:24:51;7.38;;;3.15;;
23567;SDS011;11962;50.838;4.430;2023-07-31T13:27:17;7.32;;;3.30;;
23567;SDS011;11962;50.838;4.430;2023-07-31T13:29:47;6.57;;;3.10;;
23567;SDS011;11962;50.838;4.430;2023-07-31T13:32:14;6.15;;;3.42;;
23567;SDS011;11962;50.838;4.430;2023-07-31T13:34:40;5.78;;;2.80;;
23567;SDS011;11962;50.838;4.430;2023-07-31T13:37:06;4.72;;;2.80;;
23567;SDS011;11962;50.838;4.430;2023-07-31T13:39:32;6.63;;;3.13;;
23567;SDS011;11962;50.838;4.430;2023-07-31T13:42:01;6.40;;;2.90;;
23567;SDS011;11962;50.838;4.430;2023-07-31T13:44:28;5.78;;;2.90;;
23567;SDS011;11962;50.838;4.430;2023-07-31T13:46:54;9.00;;;3.03;;
23567;SDS011;11962;50.838;4.430;2023-07-31T13:49:20;6.57;;;3.20;;
23567;SDS011;11962;50.838;4.430;2023-07-31T13:51:45;6.72;;;2.90;;
23567;SDS011;11962;50.838;4.430;2023-07-31T13:54:11;4.57;;;2.72;;
23567;SDS011;11962;50.838;4.430;2023-07-31T13:56:37;5.47;;;2.90;;
23567;SDS011;11962;50.838;4.430;2023-07-31T13:59:03;5.60;;;2.60;;
23567;SDS011;11962;50.838;4.430;2023-07-31T14:01:29;3.90;;;2.38;;
23567;SDS011;11962;50.838;4.430;2023-07-31T14:03:56;3.65;;;2.35;;
23567;SDS011;11962;50.838;4.430;2023-07-31T14:06:22;5.03;;;2.55;;
23567;SDS011;11962;50.838;4.430;2023-07-31T14:08:48;5.95;;;3.05;;
23567;SDS011;11962;50.838;4.430;2023-07-31T14:11:13;5.38;;;2.78;;
23567;SDS011;11962;50.838;4.430;2023-07-31T14:13:39;5.57;;;2.60;;
23567;SDS011;11962;50.838;4.430;2023-07-31T14:16:05;3.20;;;2.40;;
23567;SDS011;11962;50.838;4.430;2023-07-31T14:18:31;5.13;;;2.75;;
23567;SDS011;11962;50.838;4.430;2023-07-31T14:20:57;4.55;;;2.75;;
23567;SDS011;11962;50.838;4.430;2023-07-31T14:23:23;5.20;;;2.67;;
23567;SDS011;11962;50.838;4.430;2023-07-31T14:25:48;4.25;;;2.50;;
23567;SDS011;11962;50.838;4.430;2023-07-31T14:28:14;4.90;;;2.60;;
23567;SDS011;11962;50.838;4.430;2023-07-31T14:30:40;8.18;;;3.40;;
23567;SDS011;11962;50.838;4.430;2023-07-31T14:33:05;5.03;;;2.72;;
23567;SDS011;11962;50.838;4.430;2023-07-31T14:35:31;6.82;;;2.70;;
23567;SDS011;11962;50.838;4.430;2023-07-31T14:37:57;5.20;;;2.38;;
23567;SDS011;11962;50.838;4.430;2023-07-31T14:40:23;3.72;;;2.22;;
23567;SDS011;11962;50.838;4.430;2023-07-31T14:42:49;4.35;;;2.55;;
23567;SDS011;11962;50.838;4.430;2023-07-31T14:45:14;3.95;;;2.20;;
23567;SDS011;11962;50.838;4.430;2023-07-31T14:47:40;5.75;;;2.30;;
23567;SDS011;11962;50.838;4.430;2023-07-31T14:50:06;5.78;;;2.30;;
23567;SDS011;11962;50.838;4.430;2023-07-31T14:52:32;3.85;;;2.00;;
23567;SDS011;11962;50.838;4.430;2023-07-31T14:54:58;5.43;;;2.20;;
23567;SDS011;11962;50.838;4.430;2023-07-31T14:57:23;2.13;;;1.77;;
23567;SDS011;11962;50.838;4.430;2023-07-31T14:59:49;3.13;;;1.90;;
23567;SDS011;11962;50.838;4.430;2023-07-31T15:02:15;2.03;;;1.55;;